sensor_id;sensor_type;location;lat;lon;timestamp;P1;durP1;ratioP1;P2;durP2;ratioP2
37529;SDS011;23374;52.758;6.872;2024-01-16T00:01:15;1.70;;;0.80;;
37529;SDS011;23374;52.758;6.872;2024-01-16T00:03:38;8.33;;;0.87;;
37529;SDS011;23374;52.758;6.872;2024-01-16T00:06:00;1.43;;;0.50;;
37529;SDS011;23374;52.758;6.872;2024-01-16T00:08:21;1.87;;;0.50;;
37529;SDS011;23374;52.758;6.872;2024-01-16T00:10:42;4.30;;;0.80;;
37529;SDS011;23374;52.758;6.872;2024-01-16T00:13:02;1.53;;;0.80;;
37529;SDS011;23374;52.758;6.872;2024-01-16T00:15:23;1.97;;;0.40;;
37529;SDS011;23374;52.758;6.872;2024-01-16T00:17:44;1.37;;;0.33;;
37529;SDS011;23374;52.758;6.872;2024-01-16T00:20:05;4.57;;;1.10;;
37529;SDS011;23374;52.758;6.872;2024-01-16T00:22:29;2.13;;;0.60;;
37529;SDS011;23374;52.758;6.872;2024-01-16T00:24:49;1.17;;;0.70;;
37529;SDS011;23374;52.758;6.872;2024-01-16T00:27:09;4.60;;;0.80;;
37529;SDS011;23374;52.758;6.872;2024-01-16T00:29:30;4.50;;;0.67;;
37529;SDS011;23374;52.758;6.872;2024-01-16T00:31:50;2.13;;;0.97;;
37529;SDS011;23374;52.758;6.872;2024-01-16T00:34:10;6.67;;;0.80;;
37529;SDS011;23374;52.758;6.872;2024-01-16T00:36:31;3.17;;;0.57;;
37529;SDS011;23374;52.758;6.872;2024-01-16T00:38:51;2.43;;;0.70;;
37529;SDS011;23374;52.758;6.872;2024-01-16T00:41:14;10.93;;;1.20;;
37529;SDS011;23374;52.758;6.872;2024-01-16T00:43:34;4.13;;;0.53;;
37529;SDS011;23374;52.758;6.872;2024-01-16T00:45:55;2.43;;;0.70;;
37529;SDS011;23374;52.758;6.872;2024-01-16T00:48:16;8.93;;;1.00;;
37529;SDS011;23374;52.758;6.872;2024-01-16T00:50:37;6.70;;;0.87;;
37529;SDS011;23374;52.758;6.872;2024-01-16T00:52:57;1.87;;;0.70;;
37529;SDS011;23374;52.758;6.872;2024-01-16T00:55:17;2.67;;;0.30;;
37529;SDS011;23374;52.758;6.872;2024-01-16T00:57:38;1.13;;;0.53;;
37529;SDS011;23374;52.758;6.872;2024-01-16T00:59:59;1.37;;;0.60;;
37529;SDS011;23374;52.758;6.872;2024-01-16T01:02:19;2.63;;;0.70;;
37529;SDS011;23374;52.758;6.872;2024-01-16T01:04:39;5.47;;;0.87;;
37529;SDS011;23374;52.758;6.872;2024-01-16T01:07:01;2.63;;;0.80;;
37529;SDS011;23374;52.758;6.872;2024-01-16T01:09:21;4.17;;;0.53;;
37529;SDS011;23374;52.758;6.872;2024-01-16T01:11:42;3.57;;;0.40;;
37529;SDS011;23374;52.758;6.872;2024-01-16T01:14:02;1.43;;;0.53;;
37529;SDS011;23374;52.758;6.872;2024-01-16T01:16:22;0.97;;;0.33;;
37529;SDS011;23374;52.758;6.872;2024-01-16T01:18:42;2.77;;;0.47;;
37529;SDS011;23374;52.758;6.872;2024-01-16T01:21:03;5.37;;;0.83;;
37529;SDS011;23374;52.758;6.872;2024-01-16T01:23:24;1.50;;;0.43;;
37529;SDS011;23374;52.758;6.872;2024-01-16T01:25:44;3.67;;;0.87;;
37529;SDS011;23374;52.758;6.872;2024-01-16T01:28:04;2.83;;;0.57;;
37529;SDS011;23374;52.758;6.872;2024-01-16T01:30:25;2.97;;;0.40;;
37529;SDS011;23374;52.758;6.872;2024-01-16T01:32:45;2.23;;;0.67;;
37529;SDS011;23374;52.758;6.872;2024-01-16T01:35:06;3.30;;;0.37;;
37529;SDS011;23374;52.758;6.872;2024-01-16T01:37:27;4.47;;;0.43;;
37529;SDS011;23374;52.758;6.872;2024-01-16T01:39:48;2.17;;;0.57;;
37529;SDS011;23374;52.758;6.872;2024-01-16T01:42:08;2.77;;;0.50;;
37529;SDS011;23374;52.758;6.872;2024-01-16T01:44:28;1.03;;;0.40;;
37529;SDS011;23374;52.758;6.872;2024-01-16T01:46:48;4.73;;;0.57;;
37529;SDS011;23374;52.758;6.872;2024-01-16T01:49:09;1.80;;;0.50;;
37529;SDS011;23374;52.758;6.872;2024-01-16T01:51:33;3.23;;;0.50;;
37529;SDS011;23374;52.758;6.872;2024-01-16T01:53:53;4.80;;;0.50;;
37529;SDS011;23374;52.758;6.872;2024-01-16T01:56:14;1.10;;;0.40;;
37529;SDS011;23374;52.758;6.872;2024-01-16T01:58:37;2.90;;;0.83;;
37529;SDS011;23374;52.758;6.872;2024-01-16T02:00:59;5.50;;;0.43;;
37529;SDS011;23374;52.758;6.872;2024-01-16T02:03:23;2.70;;;0.50;;
37529;SDS011;23374;52.758;6.872;2024-01-16T02:05:46;2.57;;;0.63;;
37529;SDS011;23374;52.758;6.872;2024-01-16T02:08:06;1.23;;;0.47;;
37529;SDS011;23374;52.758;6.872;2024-01-16T02:10:28;0.77;;;0.23;;
37529;SDS011;23374;52.758;6.872;2024-01-16T02:12:48;2.13;;;0.40;;
37529;SDS011;23374;52.758;6.872;2024-01-16T02:15:08;3.50;;;0.50;;
37529;SDS011;23374;52.758;6.872;2024-01-16T02:17:29;5.50;;;0.30;;
37529;SDS011;23374;52.758;6.872;2024-01-16T02:19:49;1.90;;;0.50;;
37529;SDS011;23374;52.758;6.872;2024-01-16T02:22:12;3.40;;;0.80;;
37529;SDS011;23374;52.758;6.872;2024-01-16T02:24:35;3.47;;;0.53;;
37529;SDS011;23374;52.758;6.872;2024-01-16T02:26:56;1.63;;;0.67;;
37529;SDS011;23374;52.758;6.872;2024-01-16T02:29:17;1.43;;;0.40;;
37529;SDS011;23374;52.758;6.872;2024-01-16T02:31:38;3.77;;;0.80;;
37529;SDS011;23374;52.758;6.872;2024-01-16T02:33:58;2.37;;;0.73;;
37529;SDS011;23374;52.758;6.872;2024-01-16T02:36:19;1.03;;;0.37;;
37529;SDS011;23374;52.758;6.872;2024-01-16T02:38:40;2.07;;;0.30;;
37529;SDS011;23374;52.758;6.872;2024-01-16T02:41:00;1.50;;;0.30;;
37529;SDS011;23374;52.758;6.872;2024-01-16T02:43:20;2.27;;;1.07;;
37529;SDS011;23374;52.758;6.872;2024-01-16T02:45:41;1.83;;;0.27;;
37529;SDS011;23374;52.758;6.872;2024-01-16T02:48:01;1.60;;;0.17;;
37529;SDS011;23374;52.758;6.872;2024-01-16T02:50:23;0.37;;;0.30;;
37529;SDS011;23374;52.758;6.872;2024-01-16T02:52:43;1.17;;;0.20;;
37529;SDS011;23374;52.758;6.872;2024-01-16T02:55:04;0.37;;;0.30;;
37529;SDS011;23374;52.758;6.872;2024-01-16T02:57:25;2.67;;;0.50;;
37529;SDS011;23374;52.758;6.872;2024-01-16T02:59:46;4.67;;;0.60;;
37529;SDS011;23374;52.758;6.872;2024-01-16T03:02:06;1.30;;;0.43;;
37529;SDS011;23374;52.758;6.872;2024-01-16T03:04:28;0.70;;;0.60;;
37529;SDS011;23374;52.758;6.872;2024-01-16T03:06:48;1.07;;;0.50;;
37529;SDS011;23374;52.758;6.872;2024-01-16T03:09:08;6.40;;;1.17;;
37529;SDS011;23374;52.758;6.872;2024-01-16T03:11:28;2.87;;;0.60;;
37529;SDS011;23374;52.758;6.872;2024-01-16T03:13:51;7.43;;;0.50;;
37529;SDS011;23374;52.758;6.872;2024-01-16T03:16:13;4.57;;;0.50;;
37529;SDS011;23374;52.758;6.872;2024-01-16T03:18:33;0.93;;;0.40;;
37529;SDS011;23374;52.758;6.872;2024-01-16T03:20:53;2.17;;;0.37;;
37529;SDS011;23374;52.758;6.872;2024-01-16T03:23:13;5.23;;;0.80;;
37529;SDS011;23374;52.758;6.872;2024-01-16T03:25:33;2.83;;;0.60;;
37529;SDS011;23374;52.758;6.872;2024-01-16T03:27:58;0.83;;;0.30;;
37529;SDS011;23374;52.758;6.872;2024-01-16T03:30:18;1.43;;;0.80;;
37529;SDS011;23374;52.758;6.872;2024-01-16T03:32:39;4.70;;;0.50;;
37529;SDS011;23374;52.758;6.872;2024-01-16T03:34:59;4.37;;;0.60;;
37529;SDS011;23374;52.758;6.872;2024-01-16T03:37:20;3.27;;;0.40;;
37529;SDS011;23374;52.758;6.872;2024-01-16T03:39:40;1.90;;;0.70;;
37529;SDS011;23374;52.758;6.872;2024-01-16T03:42:01;1.53;;;0.57;;
37529;SDS011;23374;52.758;6.872;2024-01-16T03:44:21;8.97;;;0.83;;
37529;SDS011;23374;52.758;6.872;2024-01-16T03:46:42;3.00;;;0.80;;
37529;SDS011;23374;52.758;6.872;2024-01-16T03:49:02;5.97;;;0.93;;
37529;SDS011;23374;52.758;6.872;2024-01-16T03:51:22;1.00;;;0.47;;
37529;SDS011;23374;52.758;6.872;2024-01-16T03:53:42;10.30;;;0.80;;
37529;SDS011;23374;52.758;6.872;2024-01-16T03:56:03;1.43;;;0.50;;
37529;SDS011;23374;52.758;6.872;2024-01-16T03:58:23;6.37;;;0.40;;
37529;SDS011;23374;52.758;6.872;2024-01-16T04:00:44;3.43;;;0.40;;
37529;SDS011;23374;52.758;6.872;2024-01-16T04:03:06;6.37;;;0.67;;
37529;SDS011;23374;52.758;6.872;2024-01-16T04:05:27;2.10;;;0.60;;
37529;SDS011;23374;52.758;6.872;2024-01-16T04:07:47;0.97;;;0.50;;
37529;SDS011;23374;52.758;6.872;2024-01-16T04:10:07;2.10;;;0.60;;
37529;SDS011;23374;52.758;6.872;2024-01-16T04:12:28;1.50;;;0.70;;
37529;SDS011;23374;52.758;6.872;2024-01-16T04:14:48;1.50;;;0.40;;
37529;SDS011;23374;52.758;6.872;2024-01-16T04:17:08;2.97;;;0.50;;
37529;SDS011;23374;52.758;6.872;2024-01-16T04:19:28;2.77;;;1.13;;
37529;SDS011;23374;52.758;6.872;2024-01-16T04:21:53;1.23;;;0.50;;
37529;SDS011;23374;52.758;6.872;2024-01-16T04:24:13;5.73;;;0.40;;
37529;SDS011;23374;52.758;6.872;2024-01-16T04:26:35;8.17;;;1.23;;
37529;SDS011;23374;52.758;6.872;2024-01-16T04:28:57;2.83;;;0.73;;
37529;SDS011;23374;52.758;6.872;2024-01-16T04:31:18;5.07;;;0.90;;
37529;SDS011;23374;52.758;6.872;2024-01-16T04:33:40;3.40;;;0.80;;
37529;SDS011;23374;52.758;6.872;2024-01-16T04:36:00;2.70;;;0.87;;
37529;SDS011;23374;52.758;6.872;2024-01-16T04:38:20;2.77;;;0.50;;
37529;SDS011;23374;52.758;6.872;2024-01-16T04:40:41;2.30;;;0.60;;
37529;SDS011;23374;52.758;6.872;2024-01-16T04:43:02;4.10;;;0.90;;
37529;SDS011;23374;52.758;6.872;2024-01-16T04:45:22;5.43;;;0.50;;
37529;SDS011;23374;52.758;6.872;2024-01-16T04:47:43;5.43;;;0.57;;
37529;SDS011;23374;52.758;6.872;2024-01-16T04:50:03;2.30;;;0.80;;
37529;SDS011;23374;52.758;6.872;2024-01-16T04:52:24;3.90;;;1.03;;
37529;SDS011;23374;52.758;6.872;2024-01-16T04:54:44;3.10;;;0.50;;
37529;SDS011;23374;52.758;6.872;2024-01-16T04:57:05;4.30;;;0.70;;
37529;SDS011;23374;52.758;6.872;2024-01-16T04:59:26;7.93;;;0.73;;
37529;SDS011;23374;52.758;6.872;2024-01-16T05:01:46;7.73;;;1.20;;
37529;SDS011;23374;52.758;6.872;2024-01-16T05:04:07;0.80;;;0.47;;
37529;SDS011;23374;52.758;6.872;2024-01-16T05:06:28;0.83;;;0.30;;
37529;SDS011;23374;52.758;6.872;2024-01-16T05:08:49;2.50;;;0.70;;
37529;SDS011;23374;52.758;6.872;2024-01-16T05:11:09;2.67;;;0.77;;
37529;SDS011;23374;52.758;6.872;2024-01-16T05:13:30;3.13;;;0.60;;
37529;SDS011;23374;52.758;6.872;2024-01-16T05:15:50;8.83;;;0.70;;
37529;SDS011;23374;52.758;6.872;2024-01-16T05:18:10;7.13;;;0.93;;
37529;SDS011;23374;52.758;6.872;2024-01-16T05:20:31;3.70;;;0.50;;
37529;SDS011;23374;52.758;6.872;2024-01-16T05:22:51;2.00;;;0.47;;
37529;SDS011;23374;52.758;6.872;2024-01-16T05:25:12;0.50;;;0.20;;
37529;SDS011;23374;52.758;6.872;2024-01-16T05:27:33;2.83;;;0.67;;
37529;SDS011;23374;52.758;6.872;2024-01-16T05:29:54;1.90;;;0.70;;
37529;SDS011;23374;52.758;6.872;2024-01-16T05:32:14;2.73;;;0.80;;
37529;SDS011;23374;52.758;6.872;2024-01-16T05:34:35;4.97;;;0.70;;
37529;SDS011;23374;52.758;6.872;2024-01-16T05:36:55;0.73;;;0.40;;
37529;SDS011;23374;52.758;6.872;2024-01-16T05:39:16;1.23;;;0.50;;
37529;SDS011;23374;52.758;6.872;2024-01-16T05:41:37;0.57;;;0.20;;
37529;SDS011;23374;52.758;6.872;2024-01-16T05:43:58;1.73;;;0.50;;
37529;SDS011;23374;52.758;6.872;2024-01-16T05:46:18;1.33;;;0.63;;
37529;SDS011;23374;52.758;6.872;2024-01-16T05:48:39;6.77;;;1.03;;
37529;SDS011;23374;52.758;6.872;2024-01-16T05:50:59;1.10;;;0.50;;
37529;SDS011;23374;52.758;6.872;2024-01-16T05:53:19;2.57;;;0.60;;
37529;SDS011;23374;52.758;6.872;2024-01-16T05:55:40;6.63;;;0.67;;
37529;SDS011;23374;52.758;6.872;2024-01-16T05:58:03;0.87;;;0.50;;
37529;SDS011;23374;52.758;6.872;2024-01-16T06:00:24;4.23;;;0.90;;
37529;SDS011;23374;52.758;6.872;2024-01-16T06:02:45;2.00;;;0.57;;
37529;SDS011;23374;52.758;6.872;2024-01-16T06:05:05;4.30;;;0.77;;
37529;SDS011;23374;52.758;6.872;2024-01-16T06:07:25;3.47;;;0.43;;
37529;SDS011;23374;52.758;6.872;2024-01-16T06:09:46;1.97;;;0.73;;
37529;SDS011;23374;52.758;6.872;2024-01-16T06:12:07;2.67;;;0.67;;
37529;SDS011;23374;52.758;6.872;2024-01-16T06:14:28;1.97;;;0.80;;
37529;SDS011;23374;52.758;6.872;2024-01-16T06:16:48;2.10;;;1.00;;
37529;SDS011;23374;52.758;6.872;2024-01-16T06:19:08;2.00;;;0.73;;
37529;SDS011;23374;52.758;6.872;2024-01-16T06:21:28;2.07;;;0.63;;
37529;SDS011;23374;52.758;6.872;2024-01-16T06:23:49;2.10;;;0.60;;
37529;SDS011;23374;52.758;6.872;2024-01-16T06:26:09;1.50;;;0.90;;
37529;SDS011;23374;52.758;6.872;2024-01-16T06:28:30;3.60;;;0.87;;
37529;SDS011;23374;52.758;6.872;2024-01-16T06:30:51;5.37;;;1.03;;
37529;SDS011;23374;52.758;6.872;2024-01-16T06:33:11;5.40;;;1.10;;
37529;SDS011;23374;52.758;6.872;2024-01-16T06:35:32;4.07;;;1.00;;
37529;SDS011;23374;52.758;6.872;2024-01-16T06:37:53;3.13;;;0.80;;
37529;SDS011;23374;52.758;6.872;2024-01-16T06:40:13;1.57;;;0.67;;
37529;SDS011;23374;52.758;6.872;2024-01-16T06:42:34;5.30;;;1.00;;
37529;SDS011;23374;52.758;6.872;2024-01-16T06:44:55;2.67;;;1.10;;
37529;SDS011;23374;52.758;6.872;2024-01-16T06:47:15;4.53;;;0.90;;
37529;SDS011;23374;52.758;6.872;2024-01-16T06:49:36;3.17;;;0.60;;
37529;SDS011;23374;52.758;6.872;2024-01-16T06:51:57;2.30;;;0.93;;
37529;SDS011;23374;52.758;6.872;2024-01-16T06:54:17;3.33;;;1.20;;
37529;SDS011;23374;52.758;6.872;2024-01-16T06:56:39;3.23;;;0.87;;
37529;SDS011;23374;52.758;6.872;2024-01-16T06:59:00;4.80;;;0.90;;
37529;SDS011;23374;52.758;6.872;2024-01-16T07:01:21;3.10;;;0.80;;
37529;SDS011;23374;52.758;6.872;2024-01-16T07:03:41;1.83;;;1.00;;
37529;SDS011;23374;52.758;6.872;2024-01-16T07:06:01;3.90;;;1.10;;
37529;SDS011;23374;52.758;6.872;2024-01-16T07:08:22;6.20;;;1.50;;
37529;SDS011;23374;52.758;6.872;2024-01-16T07:10:42;1.60;;;1.20;;
37529;SDS011;23374;52.758;6.872;2024-01-16T07:13:03;3.20;;;1.20;;
37529;SDS011;23374;52.758;6.872;2024-01-16T07:15:23;9.50;;;1.57;;
37529;SDS011;23374;52.758;6.872;2024-01-16T07:17:43;4.80;;;1.10;;
37529;SDS011;23374;52.758;6.872;2024-01-16T07:20:04;1.97;;;1.03;;
37529;SDS011;23374;52.758;6.872;2024-01-16T07:22:25;6.87;;;1.60;;
37529;SDS011;23374;52.758;6.872;2024-01-16T07:24:46;6.60;;;1.50;;
37529;SDS011;23374;52.758;6.872;2024-01-16T07:27:07;2.23;;;0.70;;
37529;SDS011;23374;52.758;6.872;2024-01-16T07:29:28;3.70;;;1.57;;
37529;SDS011;23374;52.758;6.872;2024-01-16T07:31:48;3.63;;;1.30;;
37529;SDS011;23374;52.758;6.872;2024-01-16T07:34:08;2.23;;;1.23;;
37529;SDS011;23374;52.758;6.872;2024-01-16T07:36:28;1.27;;;0.90;;
37529;SDS011;23374;52.758;6.872;2024-01-16T07:38:48;2.53;;;1.40;;
37529;SDS011;23374;52.758;6.872;2024-01-16T07:41:08;2.77;;;1.60;;
37529;SDS011;23374;52.758;6.872;2024-01-16T07:43:29;7.33;;;1.30;;
37529;SDS011;23374;52.758;6.872;2024-01-16T07:45:50;2.77;;;1.37;;
37529;SDS011;23374;52.758;6.872;2024-01-16T07:48:10;5.53;;;1.50;;
37529;SDS011;23374;52.758;6.872;2024-01-16T07:50:30;3.50;;;1.53;;
37529;SDS011;23374;52.758;6.872;2024-01-16T07:52:51;9.87;;;1.73;;
37529;SDS011;23374;52.758;6.872;2024-01-16T07:55:11;6.23;;;1.40;;
37529;SDS011;23374;52.758;6.872;2024-01-16T07:57:32;5.07;;;1.80;;
37529;SDS011;23374;52.758;6.872;2024-01-16T07:59:53;6.10;;;1.20;;
37529;SDS011;23374;52.758;6.872;2024-01-16T08:02:14;2.47;;;1.57;;
37529;SDS011;23374;52.758;6.872;2024-01-16T08:04:35;3.70;;;2.03;;
37529;SDS011;23374;52.758;6.872;2024-01-16T08:06:55;4.50;;;1.67;;
37529;SDS011;23374;52.758;6.872;2024-01-16T08:09:16;6.63;;;1.50;;
37529;SDS011;23374;52.758;6.872;2024-01-16T08:11:36;3.53;;;1.60;;
37529;SDS011;23374;52.758;6.872;2024-01-16T08:13:59;3.30;;;1.53;;
37529;SDS011;23374;52.758;6.872;2024-01-16T08:16:19;4.43;;;2.00;;
37529;SDS011;23374;52.758;6.872;2024-01-16T08:18:40;6.27;;;1.90;;
37529;SDS011;23374;52.758;6.872;2024-01-16T08:21:01;3.93;;;1.43;;
37529;SDS011;23374;52.758;6.872;2024-01-16T08:23:21;5.17;;;1.93;;
37529;SDS011;23374;52.758;6.872;2024-01-16T08:25:41;10.07;;;2.00;;
37529;SDS011;23374;52.758;6.872;2024-01-16T08:28:02;2.70;;;1.70;;
37529;SDS011;23374;52.758;6.872;2024-01-16T08:30:24;3.97;;;1.77;;
37529;SDS011;23374;52.758;6.872;2024-01-16T08:32:44;6.43;;;1.70;;
37529;SDS011;23374;52.758;6.872;2024-01-16T08:35:06;2.37;;;1.17;;
37529;SDS011;23374;52.758;6.872;2024-01-16T08:37:26;2.17;;;1.33;;
37529;SDS011;23374;52.758;6.872;2024-01-16T08:39:47;6.90;;;1.57;;
37529;SDS011;23374;52.758;6.872;2024-01-16T08:42:07;2.77;;;1.40;;
37529;SDS011;23374;52.758;6.872;2024-01-16T08:44:31;3.77;;;1.80;;
37529;SDS011;23374;52.758;6.872;2024-01-16T08:46:51;7.73;;;2.17;;
37529;SDS011;23374;52.758;6.872;2024-01-16T08:49:12;9.33;;;2.30;;
37529;SDS011;23374;52.758;6.872;2024-01-16T08:51:33;5.07;;;2.13;;
37529;SDS011;23374;52.758;6.872;2024-01-16T08:53:54;4.70;;;2.20;;
37529;SDS011;23374;52.758;6.872;2024-01-16T08:56:14;3.57;;;2.07;;
37529;SDS011;23374;52.758;6.872;2024-01-16T08:58:36;5.57;;;2.23;;
37529;SDS011;23374;52.758;6.872;2024-01-16T09:00:57;3.97;;;2.00;;
37529;SDS011;23374;52.758;6.872;2024-01-16T09:03:17;5.70;;;1.80;;
37529;SDS011;23374;52.758;6.872;2024-01-16T09:05:38;3.83;;;2.60;;
37529;SDS011;23374;52.758;6.872;2024-01-16T09:07:58;4.33;;;2.57;;
37529;SDS011;23374;52.758;6.872;2024-01-16T09:10:18;6.17;;;2.30;;
37529;SDS011;23374;52.758;6.872;2024-01-16T09:12:39;9.07;;;2.30;;
37529;SDS011;23374;52.758;6.872;2024-01-16T09:15:00;5.87;;;2.93;;
37529;SDS011;23374;52.758;6.872;2024-01-16T09:17:20;6.03;;;2.43;;
37529;SDS011;23374;52.758;6.872;2024-01-16T09:19:41;5.27;;;2.50;;
37529;SDS011;23374;52.758;6.872;2024-01-16T09:22:01;6.30;;;3.03;;
37529;SDS011;23374;52.758;6.872;2024-01-16T09:24:23;4.83;;;2.47;;
37529;SDS011;23374;52.758;6.872;2024-01-16T09:26:43;6.30;;;2.40;;
37529;SDS011;23374;52.758;6.872;2024-01-16T09:29:03;5.03;;;2.80;;
37529;SDS011;23374;52.758;6.872;2024-01-16T09:31:24;4.43;;;2.90;;
37529;SDS011;23374;52.758;6.872;2024-01-16T09:33:44;3.43;;;2.67;;
37529;SDS011;23374;52.758;6.872;2024-01-16T09:36:05;10.03;;;2.77;;
37529;SDS011;23374;52.758;6.872;2024-01-16T09:38:25;5.37;;;3.27;;
37529;SDS011;23374;52.758;6.872;2024-01-16T09:40:46;4.33;;;2.77;;
37529;SDS011;23374;52.758;6.872;2024-01-16T09:43:07;5.13;;;2.77;;
37529;SDS011;23374;52.758;6.872;2024-01-16T09:45:30;9.33;;;3.37;;
37529;SDS011;23374;52.758;6.872;2024-01-16T09:47:51;4.90;;;2.50;;
37529;SDS011;23374;52.758;6.872;2024-01-16T09:50:12;5.03;;;2.83;;
37529;SDS011;23374;52.758;6.872;2024-01-16T09:52:36;7.00;;;2.83;;
37529;SDS011;23374;52.758;6.872;2024-01-16T09:54:56;10.10;;;3.10;;
37529;SDS011;23374;52.758;6.872;2024-01-16T09:57:20;8.93;;;3.13;;
37529;SDS011;23374;52.758;6.872;2024-01-16T09:59:47;4.33;;;2.40;;
37529;SDS011;23374;52.758;6.872;2024-01-16T10:02:10;5.97;;;2.73;;
37529;SDS011;23374;52.758;6.872;2024-01-16T10:04:31;4.43;;;2.70;;
37529;SDS011;23374;52.758;6.872;2024-01-16T10:06:53;6.20;;;3.10;;
37529;SDS011;23374;52.758;6.872;2024-01-16T10:09:18;6.07;;;2.90;;
37529;SDS011;23374;52.758;6.872;2024-01-16T10:11:39;6.17;;;2.93;;
37529;SDS011;23374;52.758;6.872;2024-01-16T10:14:00;6.53;;;2.87;;
37529;SDS011;23374;52.758;6.872;2024-01-16T10:16:21;7.57;;;2.90;;
37529;SDS011;23374;52.758;6.872;2024-01-16T10:18:42;5.00;;;2.63;;
37529;SDS011;23374;52.758;6.872;2024-01-16T10:21:04;6.07;;;3.00;;
37529;SDS011;23374;52.758;6.872;2024-01-16T10:23:29;7.03;;;3.00;;
37529;SDS011;23374;52.758;6.872;2024-01-16T10:26:10;9.33;;;3.27;;
37529;SDS011;23374;52.758;6.872;2024-01-16T10:28:32;4.90;;;2.67;;
37529;SDS011;23374;52.758;6.872;2024-01-16T10:31:06;10.47;;;2.70;;
37529;SDS011;23374;52.758;6.872;2024-01-16T10:33:28;7.70;;;2.90;;
37529;SDS011;23374;52.758;6.872;2024-01-16T10:35:48;5.20;;;2.90;;
37529;SDS011;23374;52.758;6.872;2024-01-16T10:38:08;9.17;;;3.10;;
37529;SDS011;23374;52.758;6.872;2024-01-16T10:40:28;9.53;;;3.07;;
37529;SDS011;23374;52.758;6.872;2024-01-16T10:43:04;8.93;;;2.53;;
37529;SDS011;23374;52.758;6.872;2024-01-16T10:45:25;3.67;;;2.83;;
37529;SDS011;23374;52.758;6.872;2024-01-16T10:47:46;6.63;;;2.50;;
37529;SDS011;23374;52.758;6.872;2024-01-16T10:50:09;5.43;;;2.83;;
37529;SDS011;23374;52.758;6.872;2024-01-16T10:52:29;3.97;;;2.20;;
37529;SDS011;23374;52.758;6.872;2024-01-16T10:54:53;5.40;;;2.37;;
37529;SDS011;23374;52.758;6.872;2024-01-16T10:57:20;5.83;;;1.73;;
37529;SDS011;23374;52.758;6.872;2024-01-16T10:59:48;3.43;;;2.30;;
37529;SDS011;23374;52.758;6.872;2024-01-16T11:02:20;5.03;;;1.90;;
37529;SDS011;23374;52.758;6.872;2024-01-16T11:04:43;5.20;;;2.30;;
37529;SDS011;23374;52.758;6.872;2024-01-16T11:07:04;3.00;;;1.97;;
37529;SDS011;23374;52.758;6.872;2024-01-16T11:09:26;7.40;;;2.83;;
37529;SDS011;23374;52.758;6.872;2024-01-16T11:11:48;3.10;;;1.40;;
37529;SDS011;23374;52.758;6.872;2024-01-16T11:14:13;4.60;;;1.63;;
37529;SDS011;23374;52.758;6.872;2024-01-16T11:16:34;8.00;;;2.00;;
37529;SDS011;23374;52.758;6.872;2024-01-16T11:18:55;5.03;;;1.60;;
37529;SDS011;23374;52.758;6.872;2024-01-16T11:21:15;2.53;;;1.73;;
37529;SDS011;23374;52.758;6.872;2024-01-16T11:23:36;2.17;;;1.43;;
37529;SDS011;23374;52.758;6.872;2024-01-16T11:25:57;7.03;;;1.80;;
37529;SDS011;23374;52.758;6.872;2024-01-16T11:28:17;3.47;;;1.80;;
37529;SDS011;23374;52.758;6.872;2024-01-16T11:30:39;3.97;;;1.90;;
37529;SDS011;23374;52.758;6.872;2024-01-16T11:33:00;4.33;;;1.50;;
37529;SDS011;23374;52.758;6.872;2024-01-16T11:35:32;5.37;;;1.80;;
37529;SDS011;23374;52.758;6.872;2024-01-16T11:38:11;2.77;;;1.63;;
37529;SDS011;23374;52.758;6.872;2024-01-16T11:40:38;5.37;;;1.97;;
37529;SDS011;23374;52.758;6.872;2024-01-16T11:43:51;3.80;;;2.30;;
37529;SDS011;23374;52.758;6.872;2024-01-16T11:46:11;4.53;;;1.90;;
37529;SDS011;23374;52.758;6.872;2024-01-16T11:48:32;3.93;;;1.60;;
37529;SDS011;23374;52.758;6.872;2024-01-16T11:50:53;2.83;;;1.93;;
37529;SDS011;23374;52.758;6.872;2024-01-16T11:53:33;4.03;;;2.10;;
37529;SDS011;23374;52.758;6.872;2024-01-16T12:02:53;3.63;;;2.07;;
37529;SDS011;23374;52.758;6.872;2024-01-16T12:05:15;3.20;;;2.20;;
37529;SDS011;23374;52.758;6.872;2024-01-16T12:07:53;3.27;;;2.37;;
37529;SDS011;23374;52.758;6.872;2024-01-16T12:10:14;4.97;;;2.20;;
37529;SDS011;23374;52.758;6.872;2024-01-16T12:12:35;3.30;;;2.30;;
37529;SDS011;23374;52.758;6.872;2024-01-16T12:14:56;5.60;;;2.90;;
37529;SDS011;23374;52.758;6.872;2024-01-16T12:17:16;6.20;;;3.07;;
37529;SDS011;23374;52.758;6.872;2024-01-16T12:19:40;7.03;;;3.03;;
37529;SDS011;23374;52.758;6.872;2024-01-16T12:22:01;9.83;;;3.00;;
37529;SDS011;23374;52.758;6.872;2024-01-16T12:24:22;6.17;;;3.60;;
37529;SDS011;23374;52.758;6.872;2024-01-16T12:26:43;12.37;;;3.53;;
37529;SDS011;23374;52.758;6.872;2024-01-16T12:29:03;6.70;;;3.20;;
37529;SDS011;23374;52.758;6.872;2024-01-16T12:31:24;5.03;;;3.20;;
37529;SDS011;23374;52.758;6.872;2024-01-16T12:33:45;11.57;;;4.43;;
37529;SDS011;23374;52.758;6.872;2024-01-16T12:36:05;8.77;;;3.17;;
37529;SDS011;23374;52.758;6.872;2024-01-16T12:38:26;6.53;;;3.40;;
37529;SDS011;23374;52.758;6.872;2024-01-16T12:40:49;7.43;;;3.77;;
37529;SDS011;23374;52.758;6.872;2024-01-16T12:43:11;11.80;;;4.23;;
37529;SDS011;23374;52.758;6.872;2024-01-16T12:45:32;6.10;;;3.40;;
37529;SDS011;23374;52.758;6.872;2024-01-16T12:47:53;11.13;;;4.90;;
37529;SDS011;23374;52.758;6.872;2024-01-16T12:50:21;25.20;;;4.60;;
37529;SDS011;23374;52.758;6.872;2024-01-16T12:52:45;7.40;;;3.70;;
37529;SDS011;23374;52.758;6.872;2024-01-16T12:55:05;8.87;;;4.33;;
37529;SDS011;23374;52.758;6.872;2024-01-16T12:57:27;7.67;;;4.10;;
37529;SDS011;23374;52.758;6.872;2024-01-16T12:59:48;11.00;;;4.57;;
37529;SDS011;23374;52.758;6.872;2024-01-16T13:02:09;8.17;;;4.17;;
37529;SDS011;23374;52.758;6.872;2024-01-16T13:04:31;5.47;;;3.43;;
37529;SDS011;23374;52.758;6.872;2024-01-16T13:07:01;15.37;;;4.37;;
37529;SDS011;23374;52.758;6.872;2024-01-16T13:09:22;9.33;;;4.10;;
37529;SDS011;23374;52.758;6.872;2024-01-16T13:11:50;8.80;;;3.57;;
37529;SDS011;23374;52.758;6.872;2024-01-16T13:14:12;9.67;;;3.63;;
37529;SDS011;23374;52.758;6.872;2024-01-16T13:16:35;7.77;;;3.33;;
37529;SDS011;23374;52.758;6.872;2024-01-16T13:19:01;9.67;;;3.70;;
37529;SDS011;23374;52.758;6.872;2024-01-16T13:21:23;6.23;;;3.50;;
37529;SDS011;23374;52.758;6.872;2024-01-16T13:23:44;5.43;;;2.90;;
37529;SDS011;23374;52.758;6.872;2024-01-16T13:26:05;4.60;;;3.00;;
37529;SDS011;23374;52.758;6.872;2024-01-16T13:28:27;7.30;;;2.60;;
37529;SDS011;23374;52.758;6.872;2024-01-16T13:30:48;8.30;;;3.53;;
37529;SDS011;23374;52.758;6.872;2024-01-16T13:33:09;7.33;;;2.90;;
37529;SDS011;23374;52.758;6.872;2024-01-16T13:35:30;4.63;;;2.77;;
37529;SDS011;23374;52.758;6.872;2024-01-16T13:37:51;9.03;;;3.40;;
37529;SDS011;23374;52.758;6.872;2024-01-16T13:40:15;5.30;;;3.10;;
37529;SDS011;23374;52.758;6.872;2024-01-16T13:42:38;10.23;;;3.00;;
37529;SDS011;23374;52.758;6.872;2024-01-16T13:44:59;6.10;;;2.60;;
37529;SDS011;23374;52.758;6.872;2024-01-16T13:47:19;6.10;;;2.10;;
37529;SDS011;23374;52.758;6.872;2024-01-16T13:49:39;4.37;;;2.63;;
37529;SDS011;23374;52.758;6.872;2024-01-16T13:52:00;6.40;;;2.43;;
37529;SDS011;23374;52.758;6.872;2024-01-16T13:54:21;6.43;;;2.50;;
37529;SDS011;23374;52.758;6.872;2024-01-16T13:56:41;8.53;;;2.53;;
37529;SDS011;23374;52.758;6.872;2024-01-16T13:59:03;7.03;;;2.63;;
37529;SDS011;23374;52.758;6.872;2024-01-16T14:01:23;5.70;;;2.37;;
37529;SDS011;23374;52.758;6.872;2024-01-16T14:03:46;6.30;;;2.43;;
37529;SDS011;23374;52.758;6.872;2024-01-16T14:06:07;4.37;;;2.50;;
37529;SDS011;23374;52.758;6.872;2024-01-16T14:08:29;5.63;;;2.40;;
37529;SDS011;23374;52.758;6.872;2024-01-16T14:10:50;4.23;;;2.20;;
37529;SDS011;23374;52.758;6.872;2024-01-16T14:13:11;7.33;;;2.70;;
37529;SDS011;23374;52.758;6.872;2024-01-16T14:15:31;7.90;;;2.50;;
37529;SDS011;23374;52.758;6.872;2024-01-16T14:17:53;4.77;;;1.73;;
37529;SDS011;23374;52.758;6.872;2024-01-16T14:20:15;3.03;;;2.00;;